sensor_id;sensor_type;location;lat;lon;timestamp;P1;durP1;ratioP1;P2;durP2;ratioP2
12052;SDS011;6087;48.982;12.064;2023-06-22T00:02:32;9.73;;;6.20;;
12052;SDS011;6087;48.982;12.064;2023-06-22T00:04:59;8.07;;;6.20;;
12052;SDS011;6087;48.982;12.064;2023-06-22T00:07:26;7.07;;;6.38;;
12052;SDS011;6087;48.982;12.064;2023-06-22T00:09:58;7.22;;;6.07;;
12052;SDS011;6087;48.982;12.064;2023-06-22T00:12:25;9.02;;;6.78;;
12052;SDS011;6087;48.982;12.064;2023-06-22T00:14:52;8.75;;;6.80;;
12052;SDS011;6087;48.982;12.064;2023-06-22T00:17:20;9.90;;;7.13;;
12052;SDS011;6087;48.982;12.064;2023-06-22T00:19:47;7.38;;;6.43;;
12052;SDS011;6087;48.982;12.064;2023-06-22T00:22:18;11.45;;;8.18;;
12052;SDS011;6087;48.982;12.064;2023-06-22T00:24:46;8.00;;;7.05;;
12052;SDS011;6087;48.982;12.064;2023-06-22T00:27:15;10.02;;;7.15;;
12052;SDS011;6087;48.982;12.064;2023-06-22T00:29:42;9.63;;;7.90;;
12052;SDS011;6087;48.982;12.064;2023-06-22T00:32:09;9.70;;;7.38;;
12052;SDS011;6087;48.982;12.064;2023-06-22T00:34:37;8.73;;;7.82;;
12052;SDS011;6087;48.982;12.064;2023-06-22T00:37:04;10.55;;;7.88;;
12052;SDS011;6087;48.982;12.064;2023-06-22T00:39:34;11.00;;;7.38;;
12052;SDS011;6087;48.982;12.064;2023-06-22T00:42:01;9.93;;;7.97;;
12052;SDS011;6087;48.982;12.064;2023-06-22T00:44:31;9.68;;;8.10;;
12052;SDS011;6087;48.982;12.064;2023-06-22T00:47:03;9.15;;;7.93;;
12052;SDS011;6087;48.982;12.064;2023-06-22T00:49:31;8.52;;;7.45;;
12052;SDS011;6087;48.982;12.064;2023-06-22T00:52:00;8.98;;;8.07;;
12052;SDS011;6087;48.982;12.064;2023-06-22T00:54:27;9.95;;;7.40;;
12052;SDS011;6087;48.982;12.064;2023-06-22T00:56:54;8.65;;;7.75;;
12052;SDS011;6087;48.982;12.064;2023-06-22T00:59:22;10.90;;;7.13;;
12052;SDS011;6087;48.982;12.064;2023-06-22T01:01:51;9.68;;;7.10;;
12052;SDS011;6087;48.982;12.064;2023-06-22T01:04:18;8.55;;;7.05;;
12052;SDS011;6087;48.982;12.064;2023-06-22T01:06:45;7.85;;;7.05;;
12052;SDS011;6087;48.982;12.064;2023-06-22T01:09:21;11.65;;;7.70;;
12052;SDS011;6087;48.982;12.064;2023-06-22T01:12:02;8.07;;;7.22;;
12052;SDS011;6087;48.982;12.064;2023-06-22T01:14:33;8.18;;;7.18;;
12052;SDS011;6087;48.982;12.064;2023-06-22T01:17:04;9.35;;;6.78;;
12052;SDS011;6087;48.982;12.064;2023-06-22T01:19:38;8.23;;;7.00;;
12052;SDS011;6087;48.982;12.064;2023-06-22T01:22:12;12.57;;;7.45;;
12052;SDS011;6087;48.982;12.064;2023-06-22T01:24:45;7.70;;;6.90;;
12052;SDS011;6087;48.982;12.064;2023-06-22T01:27:30;7.88;;;6.85;;
12052;SDS011;6087;48.982;12.064;2023-06-22T01:30:02;9.60;;;6.22;;
12052;SDS011;6087;48.982;12.064;2023-06-22T01:32:31;9.48;;;6.72;;
12052;SDS011;6087;48.982;12.064;2023-06-22T01:35:01;8.10;;;6.13;;
12052;SDS011;6087;48.982;12.064;2023-06-22T01:37:30;10.60;;;6.22;;
12052;SDS011;6087;48.982;12.064;2023-06-22T01:39:58;7.20;;;6.50;;
12052;SDS011;6087;48.982;12.064;2023-06-22T01:42:26;9.57;;;6.68;;
12052;SDS011;6087;48.982;12.064;2023-06-22T01:44:54;10.05;;;6.55;;
12052;SDS011;6087;48.982;12.064;2023-06-22T01:47:23;10.68;;;7.20;;
12052;SDS011;6087;48.982;12.064;2023-06-22T01:49:55;10.15;;;7.43;;
12052;SDS011;6087;48.982;12.064;2023-06-22T01:52:25;7.47;;;6.07;;
12052;SDS011;6087;48.982;12.064;2023-06-22T01:54:52;9.75;;;7.03;;
12052;SDS011;6087;48.982;12.064;2023-06-22T01:57:19;9.65;;;6.50;;
12052;SDS011;6087;48.982;12.064;2023-06-22T01:59:48;8.68;;;6.97;;
12052;SDS011;6087;48.982;12.064;2023-06-22T02:02:27;8.63;;;7.03;;
12052;SDS011;6087;48.982;12.064;2023-06-22T02:04:58;9.90;;;6.60;;
12052;SDS011;6087;48.982;12.064;2023-06-22T02:07:30;10.50;;;7.25;;
12052;SDS011;6087;48.982;12.064;2023-06-22T02:10:00;9.18;;;6.85;;
12052;SDS011;6087;48.982;12.064;2023-06-22T02:12:29;10.90;;;7.13;;
12052;SDS011;6087;48.982;12.064;2023-06-22T02:14:57;8.00;;;6.22;;
12052;SDS011;6087;48.982;12.064;2023-06-22T02:17:27;9.55;;;8.02;;
12052;SDS011;6087;48.982;12.064;2023-06-22T02:19:54;10.32;;;7.40;;
12052;SDS011;6087;48.982;12.064;2023-06-22T02:22:21;8.25;;;6.72;;
12052;SDS011;6087;48.982;12.064;2023-06-22T02:24:51;9.82;;;7.70;;
12052;SDS011;6087;48.982;12.064;2023-06-22T02:27:24;8.73;;;6.90;;
12052;SDS011;6087;48.982;12.064;2023-06-22T02:29:51;7.85;;;6.53;;
12052;SDS011;6087;48.982;12.064;2023-06-22T02:32:17;9.13;;;7.28;;
12052;SDS011;6087;48.982;12.064;2023-06-22T02:34:45;9.80;;;7.60;;
12052;SDS011;6087;48.982;12.064;2023-06-22T02:37:13;9.05;;;7.32;;
12052;SDS011;6087;48.982;12.064;2023-06-22T02:39:40;8.20;;;6.63;;
12052;SDS011;6087;48.982;12.064;2023-06-22T02:42:07;12.13;;;7.32;;
12052;SDS011;6087;48.982;12.064;2023-06-22T02:44:35;10.18;;;7.95;;
12052;SDS011;6087;48.982;12.064;2023-06-22T02:47:02;9.60;;;7.40;;
12052;SDS011;6087;48.982;12.064;2023-06-22T02:49:29;7.97;;;7.25;;
12052;SDS011;6087;48.982;12.064;2023-06-22T02:51:58;13.60;;;7.85;;
12052;SDS011;6087;48.982;12.064;2023-06-22T02:54:25;10.65;;;7.43;;
12052;SDS011;6087;48.982;12.064;2023-06-22T02:56:51;9.40;;;7.43;;
12052;SDS011;6087;48.982;12.064;2023-06-22T02:59:18;9.30;;;6.90;;
12052;SDS011;6087;48.982;12.064;2023-06-22T03:01:48;8.63;;;7.75;;
12052;SDS011;6087;48.982;12.064;2023-06-22T03:04:15;8.32;;;7.13;;
12052;SDS011;6087;48.982;12.064;2023-06-22T03:06:42;9.10;;;7.28;;
12052;SDS011;6087;48.982;12.064;2023-06-22T03:09:10;8.00;;;6.68;;
12052;SDS011;6087;48.982;12.064;2023-06-22T03:11:40;8.07;;;6.82;;
12052;SDS011;6087;48.982;12.064;2023-06-22T03:14:07;8.25;;;7.45;;
12052;SDS011;6087;48.982;12.064;2023-06-22T03:16:37;8.05;;;7.25;;
12052;SDS011;6087;48.982;12.064;2023-06-22T03:19:05;7.55;;;6.50;;
12052;SDS011;6087;48.982;12.064;2023-06-22T03:21:32;8.00;;;6.68;;
12052;SDS011;6087;48.982;12.064;2023-06-22T03:24:04;8.77;;;7.53;;
12052;SDS011;6087;48.982;12.064;2023-06-22T03:26:33;9.43;;;7.07;;
12052;SDS011;6087;48.982;12.064;2023-06-22T03:29:02;9.93;;;7.68;;
12052;SDS011;6087;48.982;12.064;2023-06-22T03:31:29;8.98;;;7.22;;
12052;SDS011;6087;48.982;12.064;2023-06-22T03:33:56;10.80;;;7.45;;
12052;SDS011;6087;48.982;12.064;2023-06-22T03:36:23;11.90;;;7.30;;
12052;SDS011;6087;48.982;12.064;2023-06-22T03:38:50;11.10;;;7.95;;
12052;SDS011;6087;48.982;12.064;2023-06-22T03:41:23;11.82;;;8.10;;
12052;SDS011;6087;48.982;12.064;2023-06-22T03:43:54;8.75;;;7.63;;
12052;SDS011;6087;48.982;12.064;2023-06-22T03:46:21;9.90;;;7.75;;
12052;SDS011;6087;48.982;12.064;2023-06-22T03:48:48;8.48;;;6.75;;
12052;SDS011;6087;48.982;12.064;2023-06-22T03:51:17;9.57;;;7.85;;
12052;SDS011;6087;48.982;12.064;2023-06-22T03:53:44;10.30;;;7.95;;
12052;SDS011;6087;48.982;12.064;2023-06-22T03:56:14;12.20;;;7.80;;
12052;SDS011;6087;48.982;12.064;2023-06-22T03:58:45;9.55;;;8.55;;
12052;SDS011;6087;48.982;12.064;2023-06-22T04:01:13;11.32;;;8.55;;
12052;SDS011;6087;48.982;12.064;2023-06-22T04:03:42;10.63;;;8.30;;
12052;SDS011;6087;48.982;12.064;2023-06-22T04:06:09;10.20;;;9.20;;
12052;SDS011;6087;48.982;12.064;2023-06-22T04:08:36;10.73;;;8.57;;
12052;SDS011;6087;48.982;12.064;2023-06-22T04:11:03;10.45;;;9.18;;
12052;SDS011;6087;48.982;12.064;2023-06-22T04:13:32;9.60;;;8.60;;
12052;SDS011;6087;48.982;12.064;2023-06-22T04:16:09;10.20;;;9.13;;
12052;SDS011;6087;48.982;12.064;2023-06-22T04:18:37;12.27;;;8.98;;
12052;SDS011;6087;48.982;12.064;2023-06-22T04:21:04;10.07;;;8.35;;
12052;SDS011;6087;48.982;12.064;2023-06-22T04:23:31;12.82;;;9.52;;
12052;SDS011;6087;48.982;12.064;2023-06-22T04:25:58;10.32;;;8.30;;
12052;SDS011;6087;48.982;12.064;2023-06-22T04:28:25;10.25;;;8.98;;
12052;SDS011;6087;48.982;12.064;2023-06-22T04:30:52;11.98;;;9.05;;
12052;SDS011;6087;48.982;12.064;2023-06-22T04:33:23;11.88;;;8.93;;
12052;SDS011;6087;48.982;12.064;2023-06-22T04:35:51;10.48;;;9.13;;
12052;SDS011;6087;48.982;12.064;2023-06-22T04:38:18;12.05;;;8.85;;
12052;SDS011;6087;48.982;12.064;2023-06-22T04:40:46;10.93;;;8.95;;
12052;SDS011;6087;48.982;12.064;2023-06-22T04:43:17;11.63;;;8.45;;
12052;SDS011;6087;48.982;12.064;2023-06-22T04:45:47;10.77;;;8.13;;
12052;SDS011;6087;48.982;12.064;2023-06-22T04:48:17;9.88;;;8.45;;
12052;SDS011;6087;48.982;12.064;2023-06-22T04:50:44;9.15;;;7.75;;
12052;SDS011;6087;48.982;12.064;2023-06-22T04:53:15;10.05;;;8.50;;
12052;SDS011;6087;48.982;12.064;2023-06-22T04:55:42;8.88;;;7.93;;
12052;SDS011;6087;48.982;12.064;2023-06-22T04:58:10;9.40;;;7.72;;
12052;SDS011;6087;48.982;12.064;2023-06-22T05:00:38;10.05;;;7.65;;
12052;SDS011;6087;48.982;12.064;2023-06-22T05:03:05;9.15;;;8.25;;
12052;SDS011;6087;48.982;12.064;2023-06-22T05:05:36;11.05;;;8.70;;
12052;SDS011;6087;48.982;12.064;2023-06-22T05:08:03;9.80;;;8.18;;
12052;SDS011;6087;48.982;12.064;2023-06-22T05:10:33;10.38;;;8.25;;
12052;SDS011;6087;48.982;12.064;2023-06-22T05:13:00;9.18;;;8.23;;
12052;SDS011;6087;48.982;12.064;2023-06-22T05:15:35;11.23;;;8.55;;
12052;SDS011;6087;48.982;12.064;2023-06-22T05:18:05;10.43;;;8.40;;
12052;SDS011;6087;48.982;12.064;2023-06-22T05:20:32;8.63;;;7.78;;
12052;SDS011;6087;48.982;12.064;2023-06-22T05:23:02;10.57;;;8.15;;
12052;SDS011;6087;48.982;12.064;2023-06-22T05:25:29;9.63;;;8.63;;
12052;SDS011;6087;48.982;12.064;2023-06-22T05:27:59;8.65;;;7.75;;
12052;SDS011;6087;48.982;12.064;2023-06-22T05:30:26;9.27;;;8.27;;
12052;SDS011;6087;48.982;12.064;2023-06-22T05:32:53;8.60;;;7.47;;
12052;SDS011;6087;48.982;12.064;2023-06-22T05:35:20;11.30;;;8.75;;
12052;SDS011;6087;48.982;12.064;2023-06-22T05:37:47;9.13;;;7.70;;
12052;SDS011;6087;48.982;12.064;2023-06-22T05:40:14;9.45;;;8.23;;
12052;SDS011;6087;48.982;12.064;2023-06-22T05:42:48;9.73;;;7.22;;
12052;SDS011;6087;48.982;12.064;2023-06-22T05:45:16;10.82;;;8.20;;
12052;SDS011;6087;48.982;12.064;2023-06-22T05:47:43;8.57;;;7.45;;
12052;SDS011;6087;48.982;12.064;2023-06-22T05:50:10;11.02;;;7.60;;
12052;SDS011;6087;48.982;12.064;2023-06-22T05:52:37;9.57;;;7.93;;
12052;SDS011;6087;48.982;12.064;2023-06-22T05:55:07;9.13;;;7.80;;
12052;SDS011;6087;48.982;12.064;2023-06-22T05:57:43;8.70;;;6.95;;
12052;SDS011;6087;48.982;12.064;2023-06-22T06:00:11;7.95;;;7.00;;
12052;SDS011;6087;48.982;12.064;2023-06-22T06:02:41;8.00;;;6.70;;
12052;SDS011;6087;48.982;12.064;2023-06-22T06:05:09;9.02;;;7.38;;
12052;SDS011;6087;48.982;12.064;2023-06-22T06:07:36;7.28;;;6.57;;
12052;SDS011;6087;48.982;12.064;2023-06-22T06:10:07;7.30;;;6.15;;
12052;SDS011;6087;48.982;12.064;2023-06-22T06:12:34;9.73;;;7.22;;
12052;SDS011;6087;48.982;12.064;2023-06-22T06:15:01;8.85;;;6.97;;
12052;SDS011;6087;48.982;12.064;2023-06-22T06:17:28;7.15;;;6.45;;
12052;SDS011;6087;48.982;12.064;2023-06-22T06:19:58;7.50;;;6.78;;
12052;SDS011;6087;48.982;12.064;2023-06-22T06:22:25;7.20;;;6.50;;
12052;SDS011;6087;48.982;12.064;2023-06-22T06:24:52;7.90;;;6.07;;
12052;SDS011;6087;48.982;12.064;2023-06-22T06:27:19;7.20;;;6.10;;
12052;SDS011;6087;48.982;12.064;2023-06-22T06:29:46;9.23;;;6.47;;
12052;SDS011;6087;48.982;12.064;2023-06-22T06:32:13;8.35;;;6.10;;
12052;SDS011;6087;48.982;12.064;2023-06-22T06:34:49;8.30;;;6.03;;
12052;SDS011;6087;48.982;12.064;2023-06-22T06:37:20;6.45;;;5.85;;
12052;SDS011;6087;48.982;12.064;2023-06-22T06:39:47;6.30;;;5.70;;
12052;SDS011;6087;48.982;12.064;2023-06-22T06:42:14;9.38;;;6.35;;
12052;SDS011;6087;48.982;12.064;2023-06-22T06:44:41;8.52;;;5.30;;
12052;SDS011;6087;48.982;12.064;2023-06-22T06:47:08;5.68;;;4.95;;
12052;SDS011;6087;48.982;12.064;2023-06-22T06:49:38;5.60;;;4.55;;
12052;SDS011;6087;48.982;12.064;2023-06-22T06:52:14;7.57;;;5.07;;
12052;SDS011;6087;48.982;12.064;2023-06-22T06:54:43;6.20;;;5.13;;
12052;SDS011;6087;48.982;12.064;2023-06-22T06:57:09;5.82;;;4.85;;
12052;SDS011;6087;48.982;12.064;2023-06-22T06:59:38;6.40;;;5.30;;
12052;SDS011;6087;48.982;12.064;2023-06-22T07:02:05;6.22;;;5.65;;
12052;SDS011;6087;48.982;12.064;2023-06-22T07:04:32;6.30;;;5.28;;
12052;SDS011;6087;48.982;12.064;2023-06-22T07:07:00;6.93;;;5.07;;
12052;SDS011;6087;48.982;12.064;2023-06-22T07:09:31;7.95;;;4.80;;
12052;SDS011;6087;48.982;12.064;2023-06-22T07:12:02;5.63;;;4.78;;
12052;SDS011;6087;48.982;12.064;2023-06-22T07:14:29;6.05;;;4.60;;
12052;SDS011;6087;48.982;12.064;2023-06-22T07:16:57;5.82;;;4.82;;
12052;SDS011;6087;48.982;12.064;2023-06-22T07:19:26;7.22;;;3.97;;
12052;SDS011;6087;48.982;12.064;2023-06-22T07:21:54;5.65;;;4.05;;
12052;SDS011;6087;48.982;12.064;2023-06-22T07:24:21;9.98;;;5.65;;
12052;SDS011;6087;48.982;12.064;2023-06-22T07:26:48;9.55;;;5.00;;
12052;SDS011;6087;48.982;12.064;2023-06-22T07:29:25;7.15;;;5.07;;
12052;SDS011;6087;48.982;12.064;2023-06-22T07:31:53;7.18;;;4.72;;
12052;SDS011;6087;48.982;12.064;2023-06-22T07:34:24;6.45;;;4.72;;
12052;SDS011;6087;48.982;12.064;2023-06-22T07:36:51;6.55;;;4.65;;
12052;SDS011;6087;48.982;12.064;2023-06-22T07:39:21;7.50;;;5.03;;
12052;SDS011;6087;48.982;12.064;2023-06-22T07:41:50;6.78;;;4.78;;
12052;SDS011;6087;48.982;12.064;2023-06-22T07:44:17;6.57;;;5.07;;
12052;SDS011;6087;48.982;12.064;2023-06-22T07:46:46;7.28;;;5.65;;
12052;SDS011;6087;48.982;12.064;2023-06-22T07:49:13;5.35;;;4.85;;
12052;SDS011;6087;48.982;12.064;2023-06-22T07:51:40;6.47;;;4.80;;
12052;SDS011;6087;48.982;12.064;2023-06-22T07:54:07;7.25;;;5.15;;
12052;SDS011;6087;48.982;12.064;2023-06-22T07:56:35;6.45;;;4.80;;
12052;SDS011;6087;48.982;12.064;2023-06-22T07:59:03;7.85;;;4.75;;
12052;SDS011;6087;48.982;12.064;2023-06-22T08:01:30;7.15;;;4.65;;
12052;SDS011;6087;48.982;12.064;2023-06-22T08:04:05;9.38;;;5.15;;
12052;SDS011;6087;48.982;12.064;2023-06-22T08:06:32;6.72;;;4.38;;
12052;SDS011;6087;48.982;12.064;2023-06-22T08:08:59;6.13;;;4.72;;
12052;SDS011;6087;48.982;12.064;2023-06-22T08:11:26;5.30;;;4.78;;
12052;SDS011;6087;48.982;12.064;2023-06-22T08:13:53;5.90;;;4.80;;
12052;SDS011;6087;48.982;12.064;2023-06-22T08:16:20;4.88;;;4.38;;
12052;SDS011;6087;48.982;12.064;2023-06-22T08:18:55;5.22;;;4.35;;
12052;SDS011;6087;48.982;12.064;2023-06-22T08:21:23;8.90;;;5.15;;
12052;SDS011;6087;48.982;12.064;2023-06-22T08:23:50;6.00;;;4.00;;
12052;SDS011;6087;48.982;12.064;2023-06-22T08:26:17;7.40;;;4.50;;
12052;SDS011;6087;48.982;12.064;2023-06-22T08:28:44;5.93;;;4.80;;
12052;SDS011;6087;48.982;12.064;2023-06-22T08:31:11;6.93;;;5.22;;
12052;SDS011;6087;48.982;12.064;2023-06-22T08:33:39;5.93;;;4.97;;
12052;SDS011;6087;48.982;12.064;2023-06-22T08:36:06;8.80;;;4.50;;
12052;SDS011;6087;48.982;12.064;2023-06-22T08:38:34;5.97;;;4.35;;
12052;SDS011;6087;48.982;12.064;2023-06-22T08:41:01;5.22;;;4.20;;
12052;SDS011;6087;48.982;12.064;2023-06-22T08:43:28;4.57;;;4.15;;
12052;SDS011;6087;48.982;12.064;2023-06-22T08:45:55;8.05;;;4.38;;
12052;SDS011;6087;48.982;12.064;2023-06-22T08:48:22;5.22;;;4.10;;
12052;SDS011;6087;48.982;12.064;2023-06-22T08:50:49;7.35;;;4.50;;
12052;SDS011;6087;48.982;12.064;2023-06-22T08:53:16;8.00;;;4.65;;
12052;SDS011;6087;48.982;12.064;2023-06-22T08:55:44;4.95;;;4.53;;
12052;SDS011;6087;48.982;12.064;2023-06-22T08:58:11;5.53;;;4.50;;
12052;SDS011;6087;48.982;12.064;2023-06-22T09:00:38;6.63;;;4.93;;
12052;SDS011;6087;48.982;12.064;2023-06-22T09:03:05;7.53;;;4.80;;
12052;SDS011;6087;48.982;12.064;2023-06-22T09:05:38;5.97;;;4.63;;
12052;SDS011;6087;48.982;12.064;2023-06-22T09:08:05;7.10;;;4.35;;
12052;SDS011;6087;48.982;12.064;2023-06-22T09:10:32;5.43;;;4.60;;
12052;SDS011;6087;48.982;12.064;2023-06-22T09:13:00;5.82;;;4.40;;
12052;SDS011;6087;48.982;12.064;2023-06-22T09:15:30;5.78;;;3.88;;
12052;SDS011;6087;48.982;12.064;2023-06-22T09:17:56;7.40;;;4.57;;
12052;SDS011;6087;48.982;12.064;2023-06-22T09:20:23;7.38;;;4.43;;
12052;SDS011;6087;48.982;12.064;2023-06-22T09:22:50;4.75;;;4.10;;
12052;SDS011;6087;48.982;12.064;2023-06-22T09:25:17;6.82;;;4.35;;
12052;SDS011;6087;48.982;12.064;2023-06-22T09:27:45;7.78;;;4.85;;
12052;SDS011;6087;48.982;12.064;2023-06-22T09:30:14;4.90;;;4.15;;
12052;SDS011;6087;48.982;12.064;2023-06-22T09:32:43;6.40;;;4.63;;
12052;SDS011;6087;48.982;12.064;2023-06-22T09:35:10;8.63;;;4.47;;
12052;SDS011;6087;48.982;12.064;2023-06-22T09:37:45;9.70;;;4.38;;
12052;SDS011;6087;48.982;12.064;2023-06-22T09:40:12;6.65;;;4.22;;
12052;SDS011;6087;48.982;12.064;2023-06-22T09:42:42;9.13;;;4.28;;
12052;SDS011;6087;48.982;12.064;2023-06-22T09:45:09;8.25;;;4.90;;
12052;SDS011;6087;48.982;12.064;2023-06-22T09:47:37;7.07;;;4.30;;
12052;SDS011;6087;48.982;12.064;2023-06-22T09:50:05;6.28;;;4.68;;
12052;SDS011;6087;48.982;12.064;2023-06-22T09:52:32;8.65;;;4.97;;
12052;SDS011;6087;48.982;12.064;2023-06-22T09:54:59;7.55;;;3.75;;
12052;SDS011;6087;48.982;12.064;2023-06-22T09:57:28;9.60;;;4.55;;
12052;SDS011;6087;48.982;12.064;2023-06-22T09:59:55;9.52;;;4.25;;
12052;SDS011;6087;48.982;12.064;2023-06-22T10:02:22;7.72;;;4.60;;
12052;SDS011;6087;48.982;12.064;2023-06-22T10:04:50;7.60;;;4.90;;
12052;SDS011;6087;48.982;12.064;2023-06-22T10:07:17;8.45;;;4.82;;
12052;SDS011;6087;48.982;12.064;2023-06-22T10:09:44;7.30;;;4.18;;
12052;SDS011;6087;48.982;12.064;2023-06-22T10:12:11;5.70;;;4.38;;
12052;SDS011;6087;48.982;12.064;2023-06-22T10:14:38;5.68;;;4.45;;
12052;SDS011;6087;48.982;12.064;2023-06-22T10:17:05;8.50;;;4.88;;
12052;SDS011;6087;48.982;12.064;2023-06-22T10:19:33;6.78;;;4.10;;
12052;SDS011;6087;48.982;12.064;2023-06-22T10:22:04;5.03;;;4.53;;
12052;SDS011;6087;48.982;12.064;2023-06-22T10:24:31;8.23;;;4.50;;
12052;SDS011;6087;48.982;12.064;2023-06-22T10:26:58;7.38;;;4.30;;
12052;SDS011;6087;48.982;12.064;2023-06-22T10:29:25;6.90;;;4.32;;
12052;SDS011;6087;48.982;12.064;2023-06-22T10:31:52;8.02;;;5.10;;
12052;SDS011;6087;48.982;12.064;2023-06-22T10:34:19;5.57;;;4.28;;
12052;SDS011;6087;48.982;12.064;2023-06-22T10:36:45;10.27;;;4.68;;
12052;SDS011;6087;48.982;12.064;2023-06-22T10:39:15;6.40;;;4.78;;
12052;SDS011;6087;48.982;12.064;2023-06-22T10:41:44;6.55;;;4.45;;
12052;SDS011;6087;48.982;12.064;2023-06-22T10:44:11;6.38;;;4.40;;
12052;SDS011;6087;48.982;12.064;2023-06-22T10:46:39;9.13;;;4.55;;
12052;SDS011;6087;48.982;12.064;2023-06-22T10:49:08;7.55;;;4.82;;
12052;SDS011;6087;48.982;12.064;2023-06-22T10:51:35;8.52;;;4.63;;
12052;SDS011;6087;48.982;12.064;2023-06-22T10:54:03;10.90;;;4.47;;
12052;SDS011;6087;48.982;12.064;2023-06-22T10:56:35;8.00;;;4.60;;
12052;SDS011;6087;48.982;12.064;2023-06-22T10:59:05;7.05;;;4.90;;
12052;SDS011;6087;48.982;12.064;2023-06-22T11:01:34;5.97;;;4.45;;
12052;SDS011;6087;48.982;12.064;2023-06-22T11:04:17;6.30;;;4.75;;
12052;SDS011;6087;48.982;12.064;2023-06-22T11:06:44;8.27;;;4.85;;
12052;SDS011;6087;48.982;12.064;2023-06-22T11:09:10;8.18;;;5.10;;
12052;SDS011;6087;48.982;12.064;2023-06-22T11:11:41;6.03;;;4.07;;
12052;SDS011;6087;48.982;12.064;2023-06-22T11:14:08;6.53;;;4.57;;
12052;SDS011;6087;48.982;12.064;2023-06-22T11:16:42;6.32;;;4.43;;
12052;SDS011;6087;48.982;12.064;2023-06-22T11:19:12;7.28;;;4.85;;
12052;SDS011;6087;48.982;12.064;2023-06-22T11:21:39;7.03;;;4.28;;
12052;SDS011;6087;48.982;12.064;2023-06-22T11:24:06;8.23;;;4.47;;
12052;SDS011;6087;48.982;12.064;2023-06-22T11:26:33;8.23;;;5.07;;
12052;SDS011;6087;48.982;12.064;2023-06-22T11:29:03;9.48;;;5.05;;
12052;SDS011;6087;48.982;12.064;2023-06-22T11:31:31;9.30;;;4.40;;
12052;SDS011;6087;48.982;12.064;2023-06-22T11:34:01;9.25;;;4.85;;
12052;SDS011;6087;48.982;12.064;2023-06-22T11:36:28;8.07;;;4.68;;
12052;SDS011;6087;48.982;12.064;2023-06-22T11:38:57;8.82;;;4.07;;
12052;SDS011;6087;48.982;12.064;2023-06-22T11:41:25;7.78;;;4.93;;
12052;SDS011;6087;48.982;12.064;2023-06-22T11:43:51;13.32;;;5.22;;
12052;SDS011;6087;48.982;12.064;2023-06-22T11:46:20;8.57;;;5.82;;
12052;SDS011;6087;48.982;12.064;2023-06-22T11:48:46;8.13;;;4.70;;
12052;SDS011;6087;48.982;12.064;2023-06-22T11:51:13;7.82;;;4.90;;
12052;SDS011;6087;48.982;12.064;2023-06-22T11:53:41;7.90;;;4.72;;
12052;SDS011;6087;48.982;12.064;2023-06-22T11:56:08;8.85;;;4.82;;
12052;SDS011;6087;48.982;12.064;2023-06-22T11:58:34;7.28;;;5.07;;
12052;SDS011;6087;48.982;12.064;2023-06-22T12:01:01;7.05;;;4.97;;
12052;SDS011;6087;48.982;12.064;2023-06-22T12:03:30;6.50;;;5.15;;
12052;SDS011;6087;48.982;12.064;2023-06-22T12:05:56;7.07;;;4.13;;
12052;SDS011;6087;48.982;12.064;2023-06-22T12:08:24;8.70;;;4.70;;
12052;SDS011;6087;48.982;12.064;2023-06-22T12:10:51;5.35;;;4.75;;
12052;SDS011;6087;48.982;12.064;2023-06-22T12:13:19;9.70;;;5.15;;
12052;SDS011;6087;48.982;12.064;2023-06-22T12:15:48;9.80;;;4.85;;
12052;SDS011;6087;48.982;12.064;2023-06-22T12:18:18;9.18;;;5.18;;
12052;SDS011;6087;48.982;12.064;2023-06-22T12:20:54;9.45;;;5.30;;
12052;SDS011;6087;48.982;12.064;2023-06-22T12:23:21;9.27;;;4.15;;
12052;SDS011;6087;48.982;12.064;2023-06-22T12:25:51;7.30;;;4.70;;
12052;SDS011;6087;48.982;12.064;2023-06-22T12:28:17;6.70;;;4.75;;
12052;SDS011;6087;48.982;12.064;2023-06-22T12:30:44;7.00;;;4.35;;
12052;SDS011;6087;48.982;12.064;2023-06-22T12:33:11;8.90;;;5.07;;
12052;SDS011;6087;48.982;12.064;2023-06-22T12:35:47;7.28;;;4.70;;
12052;SDS011;6087;48.982;12.064;2023-06-22T12:38:16;11.07;;;4.90;;
12052;SDS011;6087;48.982;12.064;2023-06-22T12:40:43;9.77;;;5.55;;
12052;SDS011;6087;48.982;12.064;2023-06-22T12:43:12;9.40;;;5.38;;
12052;SDS011;6087;48.982;12.064;2023-06-22T12:45:42;8.15;;;5.35;;
12052;SDS011;6087;48.982;12.064;2023-06-22T12:48:12;11.60;;;4.93;;
12052;SDS011;6087;48.982;12.064;2023-06-22T12:50:42;6.75;;;4.45;;
12052;SDS011;6087;48.982;12.064;2023-06-22T12:53:09;5.25;;;4.47;;
12052;SDS011;6087;48.982;12.064;2023-06-22T12:55:40;10.15;;;4.70;;
12052;SDS011;6087;48.982;12.064;2023-06-22T12:58:10;8.73;;;4.82;;
12052;SDS011;6087;48.982;12.064;2023-06-22T13:00:39;7.95;;;4.85;;
12052;SDS011;6087;48.982;12.064;2023-06-22T13:03:06;9.25;;;4.97;;
12052;SDS011;6087;48.982;12.064;2023-06-22T13:05:33;8.10;;;4.90;;
12052;SDS011;6087;48.982;12.064;2023-06-22T13:08:01;7.93;;;4.43;;
12052;SDS011;6087;48.982;12.064;2023-06-22T13:10:28;11.35;;;4.78;;
12052;SDS011;6087;48.982;12.064;2023-06-22T13:12:56;8.38;;;4.40;;
12052;SDS011;6087;48.982;12.064;2023-06-22T13:15:25;7.18;;;4.93;;
12052;SDS011;6087;48.982;12.064;2023-06-22T13:17:53;11.88;;;5.20;;
12052;SDS011;6087;48.982;12.064;2023-06-22T13:20:20;9.07;;;5.30;;
12052;SDS011;6087;48.982;12.064;2023-06-22T13:22:47;6.13;;;4.57;;
12052;SDS011;6087;48.982;12.064;2023-06-22T13:25:14;8.13;;;5.20;;
12052;SDS011;6087;48.982;12.064;2023-06-22T13:27:44;5.93;;;4.43;;
12052;SDS011;6087;48.982;12.064;2023-06-22T13:30:13;7.13;;;5.13;;
12052;SDS011;6087;48.982;12.064;2023-06-22T13:32:40;9.82;;;4.60;;
12052;SDS011;6087;48.982;12.064;2023-06-22T13:35:08;7.18;;;4.18;;
12052;SDS011;6087;48.982;12.064;2023-06-22T13:37:35;8.93;;;4.72;;
12052;SDS011;6087;48.982;12.064;2023-06-22T13:40:02;7.32;;;4.75;;
12052;SDS011;6087;48.982;12.064;2023-06-22T13:42:31;8.30;;;4.60;;
12052;SDS011;6087;48.982;12.064;2023-06-22T13:44:58;8.75;;;4.53;;
12052;SDS011;6087;48.982;12.064;2023-06-22T13:47:26;9.80;;;4.40;;
12052;SDS011;6087;48.982;12.064;2023-06-22T13:49:53;6.93;;;4.60;;
12052;SDS011;6087;48.982;12.064;2023-06-22T13:52:20;6.15;;;4.07;;
12052;SDS011;6087;48.982;12.064;2023-06-22T13:54:47;8.75;;;4.57;;
12052;SDS011;6087;48.982;12.064;2023-06-22T13:57:14;9.27;;;5.07;;
12052;SDS011;6087;48.982;12.064;2023-06-22T13:59:41;7.97;;;4.45;;
12052;SDS011;6087;48.982;12.064;2023-06-22T14:02:08;9.95;;;5.00;;
12052;SDS011;6087;48.982;12.064;2023-06-22T14:04:36;11.45;;;4.60;;
12052;SDS011;6087;48.982;12.064;2023-06-22T14:07:03;6.55;;;4.63;;
12052;SDS011;6087;48.982;12.064;2023-06-22T14:09:30;6.93;;;3.70;;
12052;SDS011;6087;48.982;12.064;2023-06-22T14:11:57;7.38;;;4.72;;
12052;SDS011;6087;48.982;12.064;2023-06-22T14:14:34;8.80;;;4.55;;
12052;SDS011;6087;48.982;12.064;2023-06-22T14:17:04;8.77;;;4.38;;
12052;SDS011;6087;48.982;12.064;2023-06-22T14:19:34;9.98;;;4.53;;
12052;SDS011;6087;48.982;12.064;2023-06-22T14:22:03;6.50;;;4.47;;
12052;SDS011;6087;48.982;12.064;2023-06-22T14:24:41;9.25;;;4.95;;
12052;SDS011;6087;48.982;12.064;2023-06-22T14:27:10;6.50;;;4.38;;
12052;SDS011;6087;48.982;12.064;2023-06-22T14:29:37;12.02;;;5.32;;
12052;SDS011;6087;48.982;12.064;2023-06-22T14:32:04;10.70;;;4.70;;
12052;SDS011;6087;48.982;12.064;2023-06-22T14:34:34;10.77;;;4.75;;
12052;SDS011;6087;48.982;12.064;2023-06-22T14:37:07;9.98;;;4.65;;
12052;SDS011;6087;48.982;12.064;2023-06-22T14:39:35;12.35;;;5.10;;
12052;SDS011;6087;48.982;12.064;2023-06-22T14:42:02;9.65;;;5.25;;
12052;SDS011;6087;48.982;12.064;2023-06-22T14:44:29;10.00;;;4.50;;
12052;SDS011;6087;48.982;12.064;2023-06-22T14:46:56;7.07;;;4.70;;
12052;SDS011;6087;48.982;12.064;2023-06-22T14:49:23;11.30;;;5.03;;
12052;SDS011;6087;48.982;12.064;2023-06-22T14:51:55;10.27;;;4.65;;
12052;SDS011;6087;48.982;12.064;2023-06-22T14:54:22;7.22;;;4.22;;